»·PEaware :: N717TS KSNA-L19

N717TS :: KSNA-L19

FLIGHT INFORMATION

Flight Status: Arrived
Operator: Privately registered:
United States
More flights under this callsign
Pilot: Ty S. (2873)
Aircraft: SOCATA TBM-900
(TBM9)
More flights by this aircraft type
Origin: KSNA John Wayne-Orange Co
United States
Destination: L19 Wasco-Kern Co
United States
More flights between these airports :: More routes between these airports
Route: +MUSEL8 SLI V459 LHS
File this flight plan on PilotEdge
Remarks:
Altitude:
(Current/Filed)
12,000ft
Speed:
(Current/Filed)
350kts
Departed: 23-Mar-20 04:57 PM
Arrived: 23-Mar-20 05:41 PM
Distance/Time
Traveled:
138nm/0:43
Distance/Time
To Go:
Arrived

Flight Plot

Page will automatically refresh every two minutes.

Flight plan parsing failed; only flown route is shown


Map Options




Map Legend


Flown Route
Filed Route
Departure Airport
Arrival Airport
Navaid (VOR, NDB)
Fix

Horizontal Profiles

Position Reports

Time Latitude Longitude Heading Altitude Ground
Speed
23-Mar-20 16:07 33.672456 -117.867186 208 59ft 0kts
23-Mar-20 16:08 33.672456 -117.867186 208 59ft 0kts
23-Mar-20 16:09 33.672456 -117.867186 208 59ft 0kts
23-Mar-20 16:10 33.672456 -117.867186 208 59ft 0kts
23-Mar-20 16:11 33.672456 -117.867186 208 59ft 0kts
23-Mar-20 16:12 33.672456 -117.867186 208 59ft 0kts
23-Mar-20 16:13 33.672456 -117.867186 208 59ft 0kts
23-Mar-20 16:14 33.672456 -117.867186 208 59ft 0kts
23-Mar-20 16:15 33.672456 -117.867186 208 59ft 0kts
23-Mar-20 16:16 33.672456 -117.867186 208 59ft 0kts
23-Mar-20 16:17 33.672456 -117.867186 208 59ft 0kts
23-Mar-20 16:18 33.672456 -117.867186 208 59ft 0kts
23-Mar-20 16:19 33.672456 -117.867186 208 59ft 0kts
23-Mar-20 16:20 33.672456 -117.867186 208 59ft 0kts
23-Mar-20 16:21 33.672456 -117.867186 208 59ft 0kts
23-Mar-20 16:22 33.672456 -117.867186 208 59ft 0kts
23-Mar-20 16:23 33.672456 -117.867186 208 59ft 0kts
23-Mar-20 16:24 33.672456 -117.867186 208 59ft 0kts
23-Mar-20 16:25 33.672456 -117.867186 208 59ft 0kts
23-Mar-20 16:26 33.672456 -117.867186 208 59ft 0kts
23-Mar-20 16:27 33.672456 -117.867186 208 59ft 0kts
23-Mar-20 16:28 33.672456 -117.867186 208 59ft 0kts
23-Mar-20 16:29 33.672456 -117.867186 208 59ft 0kts
23-Mar-20 16:39 33.672456 -117.867186 208 59ft 0kts
23-Mar-20 16:40 33.672456 -117.867186 208 59ft 0kts
23-Mar-20 16:41 33.672456 -117.867186 208 59ft 0kts
23-Mar-20 16:42 33.672456 -117.867186 208 59ft 0kts
23-Mar-20 16:43 33.672456 -117.867186 208 59ft 0kts
23-Mar-20 16:44 33.672456 -117.867186 208 59ft 0kts
23-Mar-20 16:45 33.672456 -117.867186 208 59ft 0kts
23-Mar-20 16:46 33.672456 -117.867186 208 59ft 0kts
23-Mar-20 16:47 33.672456 -117.867186 208 59ft 0kts
23-Mar-20 16:47 33.672456 -117.867186 208 59ft 0kts
23-Mar-20 16:49 33.672425 -117.867450 280 59ft 4kts
23-Mar-20 16:50 33.674294 -117.866970 27 59ft 8kts
23-Mar-20 16:50 33.676827 -117.865359 27 59ft 13kts
23-Mar-20 16:52 33.679664 -117.863555 28 59ft 0kts
23-Mar-20 16:53 33.679664 -117.863555 28 59ft 0kts
23-Mar-20 16:53 33.679664 -117.863555 28 59ft 0kts
23-Mar-20 16:54 33.680133 -117.863998 298 59ft 8kts
23-Mar-20 16:56 33.680662 -117.865698 211 59ft 0kts
23-Mar-20 16:56 33.671682 -117.871276 209 271ft 104kts
23-Mar-20 16:57 33.640755 -117.884957 189 1812ft 138kts
23-Mar-20 16:58 33.599935 -117.892421 192 3549ft 157kts
23-Mar-20 16:59 33.585552 -117.925614 285 5019ft 170kts
23-Mar-20 17:00 33.598194 -117.989858 281 5069ft 212kts
23-Mar-20 17:01 33.611683 -118.058297 281 5913ft 207kts
23-Mar-20 17:02 33.643231 -118.100906 6 7313ft 210kts
23-Mar-20 17:03 33.699383 -118.083408 10 8812ft 205kts
23-Mar-20 17:04 33.753897 -118.064824 9 10300ft 199kts
23-Mar-20 17:05 33.803836 -118.066825 330 11778ft 178kts
23-Mar-20 17:06 33.855310 -118.096164 330 11988ft 229kts
23-Mar-20 17:07 33.915605 -118.130775 331 11978ft 246kts
23-Mar-20 17:08 33.978249 -118.166850 331 11977ft 250kts
23-Mar-20 17:09 34.041380 -118.203277 331 11974ft 251kts
23-Mar-20 17:10 34.103838 -118.239376 331 11970ft 251kts
23-Mar-20 17:11 34.166908 -118.275883 331 11971ft 251kts
23-Mar-20 17:12 34.230083 -118.312508 331 11971ft 251kts
23-Mar-20 17:13 34.293256 -118.349203 331 11996ft 251kts
23-Mar-20 17:14 34.356082 -118.385756 331 12007ft 251kts
23-Mar-20 17:15 34.419052 -118.422456 331 12013ft 251kts
23-Mar-20 17:16 34.482050 -118.459230 331 12004ft 251kts
23-Mar-20 17:17 34.545063 -118.496078 331 12001ft 251kts
23-Mar-20 17:18 34.608038 -118.532965 331 12001ft 251kts
23-Mar-20 17:19 34.671088 -118.569960 331 11996ft 251kts
23-Mar-20 17:20 34.729809 -118.615257 323 11987ft 249kts
23-Mar-20 17:21 34.785849 -118.661174 323 11991ft 249kts
23-Mar-20 17:22 34.843576 -118.708547 323 11990ft 250kts
23-Mar-20 17:23 34.901532 -118.756200 322 11991ft 252kts
23-Mar-20 17:24 34.959812 -118.804223 323 12012ft 252kts
23-Mar-20 17:25 35.018138 -118.852336 324 12013ft 255kts
23-Mar-20 17:26 35.077228 -118.901145 324 12003ft 257kts
23-Mar-20 17:27 35.135905 -118.949721 324 11996ft 257kts
23-Mar-20 17:28 35.194079 -118.997980 324 10557ft 253kts
23-Mar-20 17:29 35.252770 -119.046750 325 9064ft 255kts
23-Mar-20 17:30 35.311302 -119.095463 325 7567ft 254kts
23-Mar-20 17:31 35.369461 -119.143955 325 6073ft 253kts
23-Mar-20 17:32 35.427641 -119.192552 325 4573ft 253kts
23-Mar-20 17:33 35.481566 -119.240309 323 3131ft 206kts
23-Mar-20 17:34 35.522392 -119.280788 320 1816ft 191kts
23-Mar-20 17:35 35.552597 -119.329584 303 1858ft 185kts
23-Mar-20 17:36 35.581750 -119.382394 306 1994ft 190kts
23-Mar-20 17:37 35.617768 -119.399751 80 1645ft 148kts
23-Mar-20 17:38 35.596439 -119.363911 134 1561ft 119kts
23-Mar-20 17:39 35.605835 -119.335988 335 918ft 90kts
23-Mar-20 17:40 35.620711 -119.354755 315 315ft 39kts
23-Mar-20 17:41 35.622213 -119.356018 135 315ft 11kts
23-Mar-20 17:42 35.619512 -119.352738 135 315ft 16kts
23-Mar-20 17:43 35.617497 -119.349945 36 315ft 7kts
23-Mar-20 17:44 35.617819 -119.349706 179 315ft 0kts
23-Mar-20 17:45 35.617819 -119.349706 179 315ft 0kts
23-Mar-20 17:46 35.617819 -119.349706 179 315ft 0kts
23-Mar-20 17:47 35.617819 -119.349706 179 315ft 0kts
23-Mar-20 17:48 35.617819 -119.349706 179 315ft 0kts
23-Mar-20 17:49 35.617819 -119.349706 179 315ft 0kts
23-Mar-20 17:50 35.617819 -119.349706 179 315ft 0kts
23-Mar-20 17:51 35.617819 -119.349706 179 315ft 0kts

Navigation Log

Ident Type
Flight plan parsing failed, navigation log unavailable